Falls International Airport

Date: 2024-06-11 13:30:00Z

Type: SPECI

Weather: Light Rain

Winds: 160° at 8 kts, Gusting to 17 kts

Visibility: 6

Ceiling (AGL FT): Clouds OVERCAST at 700, BROKEN at 3800, OVERCAST at 11000, BROKEN at 9000

RAW METAR: KINL 111330Z AUTO 16008G17KT 6SM -RA BR OVC007 11/10 A2971 RMK AO2 P0002 T01110100

project-image